1
11
3
4 106834 303373_3e4cee13b3_z.jpg
4 10802802545_a9b4132ffc_z.jpg
4 10802961384_71fee4c235_z.jpg

KOUN 252320Z 2600/2624 09008KT P6SM VCTS SCT050CB BKN150

FM260100 09008KT P6SM BKN060 BKN150

FM260800 09005KT P6SM BKN040 BKN100 PROB30 2609/2614 P6SM TSRA BKN040CB

FM261800 VRB05KT P6SM BKN060 BKN100
KOUN 260215Z AUTO 15005KT 10SM CLR 30/23 A2995 RMK AO2 TSNO

News

Summer Camp  Registration is open for summer camp 2016.  You can register by selecting the camp event page appropriate to your child's age in the list of upcoming events or by clicking the camp session on the schedule on the summer camp page.  Learn more about summer camp and scholarships in our FAQ.  Download the registration tutorial for help.

Field Trips and School Programs  Want to engage your class with enriching STEM activities?  Fill out the School Activity Survey on our Teacher page today.  Log-in and make sure you have Teacher access by updating your info in the menu on the left.

Are you interested in learning how to decode the Terminal Area Forecast (TAF) located in the upper right corner of this News section?  Click here to link to the Aviation Weather Center explanation.

If you have attended any of our events, we would love to hear your feedback.  Click here for the form.  We would also love any recommendations you wanted to leave on Facebook.